createdAt,value
2022-09-24T00:01:22.383Z,9.59
2022-09-24T00:06:24.670Z,9.30
2022-09-24T00:11:29.238Z,9.46
2022-09-24T00:16:34.138Z,9.41
2022-09-24T00:21:37.913Z,9.44
2022-09-24T00:26:59.010Z,9.43
2022-09-24T00:32:02.108Z,9.61
2022-09-24T00:37:04.320Z,9.34
2022-09-24T00:42:25.814Z,9.25
2022-09-24T00:47:31.638Z,9.59
2022-09-24T00:52:38.877Z,9.54
2022-09-24T00:57:42.344Z,9.17
2022-09-24T01:02:47.363Z,9.36
2022-09-24T01:07:49.653Z,9.28
2022-09-24T01:12:58.541Z,9.08
2022-09-24T01:18:12.545Z,9.31
2022-09-24T01:23:38.002Z,9.30
2022-09-24T01:29:11.143Z,9.58
2022-09-24T01:34:15.984Z,9.28
2022-09-24T01:39:19.151Z,9.18
2022-09-24T01:44:21.649Z,9.35
2022-09-24T01:49:23.897Z,9.40
2022-09-24T01:54:29.964Z,9.44
2022-09-24T02:00:05.907Z,9.43
2022-09-24T02:05:34.159Z,9.51
2022-09-24T02:10:56.803Z,9.39
2022-09-24T02:16:22.204Z,9.27
2022-09-24T02:21:25.205Z,9.20
2022-09-24T02:26:27.417Z,9.09
2022-09-24T02:31:32.499Z,9.32
2022-09-24T02:37:02.841Z,9.17
2022-09-24T02:42:14.367Z,9.31
2022-09-24T02:47:16.528Z,9.19
2022-09-24T02:52:37.511Z,9.05
2022-09-24T02:57:58.229Z,8.98
2022-09-24T03:03:00.491Z,9.05
2022-09-24T03:08:02.688Z,9.38
2022-09-24T03:13:05.002Z,8.94
2022-09-24T03:18:07.230Z,9.08
2022-09-24T03:23:09.559Z,9.19
2022-09-24T03:28:11.707Z,8.77
2022-09-24T03:33:47.534Z,9.38
2022-09-24T03:38:52.084Z,9.31
2022-09-24T03:44:12.963Z,9.00
2022-09-24T03:49:15.156Z,9.15
2022-09-24T03:54:29.652Z,9.10
2022-09-24T03:59:31.799Z,9.09
2022-09-24T04:04:33.966Z,8.95
2022-09-24T04:09:39.066Z,8.90
2022-09-24T04:14:41.219Z,8.85
2022-09-24T04:19:44.144Z,8.71
2022-09-24T04:24:46.371Z,9.01
2022-09-24T04:29:48.790Z,8.84
2022-09-24T04:34:50.985Z,8.98
2022-09-24T04:39:53.172Z,9.10
2022-09-24T04:44:56.265Z,9.03
2022-09-24T04:50:00.363Z,8.93
2022-09-24T04:55:02.675Z,8.90
2022-09-24T05:00:07.137Z,8.90
2022-09-24T05:05:09.683Z,8.82
2022-09-24T05:10:33.412Z,8.92
2022-09-24T05:15:38.520Z,8.86
2022-09-24T05:20:47.438Z,8.84
2022-09-24T05:26:08.150Z,8.66
2022-09-24T05:31:11.077Z,8.19
2022-09-24T05:36:31.929Z,8.83
2022-09-24T05:41:34.167Z,8.74
2022-09-24T05:46:36.533Z,8.89
2022-09-24T05:51:38.897Z,8.73
2022-09-24T05:56:41.057Z,8.83
2022-09-24T06:01:43.340Z,8.76
2022-09-24T06:06:45.694Z,8.64
2022-09-24T06:11:51.815Z,8.66
2022-09-24T06:16:54.428Z,8.74
2022-09-24T06:21:57.792Z,8.80
2022-09-24T06:26:59.999Z,8.42
2022-09-24T06:32:20.866Z,8.58
2022-09-24T06:37:23.081Z,8.44
2022-09-24T06:42:25.330Z,8.22
2022-09-24T06:47:27.578Z,8.57
2022-09-24T06:52:30.513Z,8.38
2022-09-24T06:57:32.779Z,8.65
2022-09-24T07:02:35.054Z,8.57
2022-09-24T07:07:52.494Z,8.63
2022-09-24T07:12:54.735Z,8.04
2022-09-24T07:17:57.507Z,8.68
2022-09-24T07:22:59.688Z,8.43
2022-09-24T07:28:07.468Z,8.54
2022-09-24T07:33:09.902Z,8.36
2022-09-24T07:38:30.583Z,8.48
2022-09-24T07:43:33.939Z,8.45
2022-09-24T07:48:36.153Z,8.53
2022-09-24T07:53:38.511Z,8.21
2022-09-24T07:58:59.229Z,8.43
2022-09-24T08:04:01.725Z,8.40
2022-09-24T08:09:05.048Z,8.19
2022-09-24T08:14:09.757Z,8.37
2022-09-24T08:19:31.575Z,8.35
2022-09-24T08:24:33.721Z,8.53
2022-09-24T08:29:35.946Z,8.61
2022-09-24T08:34:40.897Z,8.26
2022-09-24T08:39:43.113Z,7.78
2022-09-24T08:45:05.262Z,8.38
2022-09-24T08:50:30.867Z,7.61
2022-09-24T08:55:40.050Z,8.49
2022-09-24T09:01:24.981Z,8.63
2022-09-24T09:07:19.414Z,8.67
2022-09-24T09:12:28.348Z,8.34
2022-09-24T09:17:55.536Z,8.66
2022-09-24T09:23:01.554Z,8.27
2022-09-24T09:28:15.508Z,8.66
2022-09-24T09:33:54.996Z,8.71
2022-09-24T09:39:23.177Z,8.70
2022-09-24T09:44:28.384Z,8.59
2022-09-24T09:49:36.541Z,8.54
2022-09-24T09:54:40.005Z,8.20
2022-09-24T09:59:46.909Z,8.58
2022-09-24T10:04:53.014Z,8.34
2022-09-24T10:10:19.230Z,8.40
2022-09-24T10:15:24.404Z,8.70
2022-09-24T10:20:32.966Z,8.86
2022-09-24T10:25:37.893Z,8.50
2022-09-24T10:31:06.829Z,8.84
2022-09-24T10:36:19.067Z,8.38
2022-09-24T10:41:29.248Z,8.59
2022-09-24T10:47:08.429Z,8.94
2022-09-24T10:52:19.825Z,8.89
2022-09-24T10:58:03.644Z,8.93
2022-09-24T11:03:43.679Z,8.94
2022-09-24T11:09:22.376Z,8.87
2022-09-24T11:14:46.405Z,8.55
2022-09-24T11:20:03.227Z,8.92
2022-09-24T11:25:20.315Z,8.52
2022-09-24T11:30:47.778Z,8.93
2022-09-24T11:35:56.952Z,8.95
2022-09-24T11:41:12.453Z,8.95
2022-09-24T11:47:06.783Z,8.81
2022-09-24T11:52:41.373Z,8.96
2022-09-24T11:58:14.666Z,8.91
2022-09-24T12:03:25.937Z,9.00
2022-09-24T12:08:53.202Z,8.95
2022-09-24T12:14:26.185Z,9.10
2022-09-24T12:19:54.180Z,8.81
2022-09-24T12:24:59.776Z,9.00
2022-09-24T12:30:42.342Z,9.02
2022-09-24T12:35:47.680Z,9.01
2022-09-24T12:40:56.422Z,9.00
2022-09-24T12:46:02.577Z,8.86
2022-09-24T12:51:07.280Z,8.79
2022-09-24T12:56:10.688Z,8.82
2022-09-24T13:01:25.264Z,9.05
2022-09-24T13:06:36.150Z,8.78
2022-09-24T13:11:38.364Z,8.68
2022-09-24T13:16:42.355Z,8.73
2022-09-24T13:21:53.920Z,8.76
2022-09-24T13:27:09.145Z,8.54
2022-09-24T13:32:16.784Z,8.78
2022-09-24T13:37:28.720Z,8.81
2022-09-24T13:43:11.265Z,9.04
2022-09-24T13:48:20.046Z,8.68
2022-09-24T13:53:35.554Z,8.72
2022-09-24T13:59:12.907Z,8.70
2022-09-24T14:04:20.947Z,8.85
2022-09-24T14:09:33.528Z,8.90
2022-09-24T14:14:35.886Z,8.71
2022-09-24T14:19:38.315Z,8.56
2022-09-24T14:24:45.670Z,8.83
2022-09-24T14:29:53.792Z,8.88
2022-09-24T14:35:29.617Z,8.79
2022-09-24T14:40:55.211Z,8.78
2022-09-24T14:46:25.305Z,8.88
2022-09-24T14:51:29.794Z,8.83
2022-09-24T14:56:33.861Z,8.81
2022-09-24T15:01:36.112Z,8.60
2022-09-24T15:06:47.063Z,8.61
2022-09-24T15:12:08.419Z,8.80
2022-09-24T15:17:21.517Z,8.82
2022-09-24T15:22:42.348Z,8.39
2022-09-24T15:27:45.260Z,8.48
2022-09-24T15:33:14.062Z,8.48
2022-09-24T15:38:17.672Z,8.69
2022-09-24T15:43:22.434Z,8.61
2022-09-24T15:48:44.806Z,8.50
2022-09-24T15:53:48.092Z,8.42
2022-09-24T15:58:51.250Z,8.43
2022-09-24T16:03:54.615Z,8.54
2022-09-24T16:08:56.830Z,8.55
2022-09-24T16:14:12.376Z,8.31
2022-09-24T16:19:14.624Z,8.48
2022-09-24T16:24:16.900Z,8.49
2022-09-24T16:29:19.376Z,8.20
2022-09-24T16:34:21.645Z,8.22
2022-09-24T16:39:23.895Z,8.20
2022-09-24T16:44:44.717Z,8.10
2022-09-24T16:49:49.102Z,8.17
2022-09-24T16:54:51.519Z,8.25
2022-09-24T16:59:53.930Z,8.33
2022-09-24T17:05:03.994Z,8.42
2022-09-24T17:10:18.603Z,8.37
2022-09-24T17:15:21.334Z,8.47
2022-09-24T17:20:42.257Z,8.23
2022-09-24T17:25:44.512Z,8.23
2022-09-24T17:30:46.892Z,8.24
2022-09-24T17:36:04.269Z,8.45
2022-09-24T17:41:09.153Z,8.38
2022-09-24T17:46:22.013Z,8.36
2022-09-24T17:51:27.368Z,8.34
2022-09-24T17:56:32.296Z,8.18
2022-09-24T18:01:37.314Z,8.29
2022-09-24T18:06:42.849Z,7.99
2022-09-24T18:11:49.912Z,8.01
2022-09-24T18:16:53.731Z,7.92
2022-09-24T18:21:56.800Z,7.93
2022-09-24T18:27:17.665Z,8.02
2022-09-24T18:32:20.651Z,8.07
2022-09-24T18:37:41.699Z,8.02
2022-09-24T18:42:44.048Z,8.08
2022-09-24T18:48:04.982Z,7.80
2022-09-24T18:53:07.384Z,7.98
2022-09-24T18:58:13.674Z,8.00
2022-09-24T19:03:19.293Z,7.42
2022-09-24T19:08:23.375Z,8.07
2022-09-24T19:13:29.641Z,7.98
2022-09-24T19:18:33.375Z,7.97
2022-09-24T19:23:40.031Z,8.13
2022-09-24T19:28:43.286Z,8.04
2022-09-24T19:34:06.450Z,8.12
2022-09-24T19:39:10.053Z,7.91
2022-09-24T19:44:16.665Z,8.01
2022-09-24T19:49:20.632Z,7.98
2022-09-24T19:54:22.911Z,7.90
2022-09-24T19:59:25.973Z,7.97
2022-09-24T20:04:28.353Z,7.85
2022-09-24T20:09:31.278Z,7.87
2022-09-24T20:14:33.955Z,8.00
2022-09-24T20:19:36.411Z,7.91
2022-09-24T20:24:38.682Z,8.08
2022-09-24T20:29:43.613Z,8.07
2022-09-24T20:34:45.835Z,7.91
2022-09-24T20:40:08.133Z,7.95
2022-09-24T20:45:28.374Z,7.97
2022-09-24T20:50:32.335Z,7.95
2022-09-24T20:55:46.589Z,7.99
2022-09-24T21:00:54.861Z,7.83
2022-09-24T21:06:04.916Z,7.76
2022-09-24T21:11:12.806Z,7.92
2022-09-24T21:16:17.776Z,8.01
2022-09-24T21:21:27.702Z,8.09
2022-09-24T21:26:31.789Z,7.71
2022-09-24T21:31:35.501Z,8.04
2022-09-24T21:36:56.472Z,7.90
2022-09-24T21:41:59.869Z,7.71
2022-09-24T21:47:02.118Z,7.88
2022-09-24T21:52:06.292Z,7.87
2022-09-24T21:57:08.601Z,7.84
2022-09-24T22:02:30.343Z,7.98
2022-09-24T22:07:32.625Z,7.80
2022-09-24T22:12:35.440Z,7.67
2022-09-24T22:17:37.618Z,7.61
2022-09-24T22:22:39.860Z,8.04
2022-09-24T22:27:42.036Z,7.91
2022-09-24T22:32:44.320Z,7.91
2022-09-24T22:37:46.715Z,7.86
2022-09-24T22:42:49.501Z,7.87
2022-09-24T22:47:51.715Z,7.89
2022-09-24T22:52:54.080Z,7.90
2022-09-24T22:57:56.638Z,7.92
2022-09-24T23:02:59.474Z,8.01
2022-09-24T23:08:02.032Z,7.74
2022-09-24T23:13:23.133Z,8.00
2022-09-24T23:18:25.304Z,7.83
2022-09-24T23:23:27.510Z,7.86
2022-09-24T23:28:51.302Z,7.85
2022-09-24T23:34:13.056Z,8.06
2022-09-24T23:39:15.404Z,8.02
2022-09-24T23:44:17.615Z,8.05
2022-09-24T23:49:19.759Z,7.93
2022-09-24T23:54:22.016Z,7.95
2022-09-24T23:59:24.372Z,7.90
